Time;durP1;ratioP1;P1;durP2;ratioP2;P2;SDS_P1;SDS_P2;PMS_P1;PMS_P2;Temp;Humidity;BMP_temperature;BMP_pressure;BME280_temperature;BME280_humidity;BME280_pressure;Samples;Min_cycle;Max_cycle;Signal;HPM_P1;HPM_P2
2024/04/11 00:00:50;;;;;;;12.48;10.02;;;;;;;4.40;91.52;96966.84;7394805;19;19994;-51
2024/04/11 00:03:16;;;;;;;13.60;8.98;;;;;;;4.30;91.76;96965.19;7394797;19;19991;-59
2024/04/11 00:05:42;;;;;;;11.55;8.73;;;;;;;4.28;92.37;96964.34;7392836;19;20028;-59
2024/04/11 00:08:08;;;;;;;10.88;8.95;;;;;;;4.09;92.67;96969.63;7394793;19;20011;-54
2024/04/11 00:10:33;;;;;;;11.50;7.85;;;;;;;4.20;94.35;96963.53;7394562;19;20028;-54
2024/04/11 00:12:59;;;;;;;10.10;8.35;;;;;;;4.16;94.25;96962.69;7393132;19;20367;-59
2024/04/11 00:15:24;;;;;;;8.90;7.30;;;;;;;4.20;93.82;96964.38;7394424;19;20496;-54
2024/04/11 00:17:50;;;;;;;10.23;7.10;;;;;;;4.27;92.40;96968.66;7394369;19;20002;-55
2024/04/11 00:20:16;;;;;;;10.52;6.10;;;;;;;4.07;94.61;96979.16;7394324;19;20058;-54
2024/04/11 00:22:41;;;;;;;10.55;6.38;;;;;;;4.05;95.76;96975.69;7394434;19;20026;-57
2024/04/11 00:25:07;;;;;;;9.60;6.00;;;;;;;4.13;94.59;96965.31;7394233;19;19997;-54
2024/04/11 00:27:33;;;;;;;10.95;6.47;;;;;;;4.11;94.39;96972.19;7394105;19;19990;-56
2024/04/11 00:29:59;;;;;;;8.63;6.35;;;;;;;3.95;94.95;96968.84;7394037;19;20016;-55
2024/04/11 00:32:25;;;;;;;9.68;5.97;;;;;;;4.01;96.66;96967.06;7392589;19;19999;-56
2024/04/11 00:34:50;;;;;;;12.02;6.57;;;;;;;4.13;95.63;96966.13;7393940;19;20005;-57
2024/04/11 00:37:16;;;;;;;9.77;6.30;;;;;;;4.02;95.41;96968.81;7400700;19;20054;-59
2024/04/11 00:39:41;;;;;;;8.57;6.65;;;;;;;3.97;95.87;96965.38;7401746;19;19995;-61
2024/04/11 00:42:07;;;;;;;9.55;6.15;;;;;;;3.86;96.73;96962.84;7401202;19;19995;-58
2024/04/11 00:44:34;;;;;;;13.82;7.15;;;;;;;3.99;95.27;96963.63;7399646;19;20479;-58
2024/04/11 00:47:00;;;;;;;10.95;7.18;;;;;;;3.78;96.62;96964.59;7401106;19;19990;-60
2024/04/11 00:49:26;;;;;;;9.27;6.25;;;;;;;3.88;95.81;96968.84;7400922;19;20015;-60
2024/04/11 00:51:52;;;;;;;9.73;7.22;;;;;;;3.74;97.73;96968.94;7400070;19;20006;-58
2024/04/11 00:54:18;;;;;;;10.25;7.95;;;;;;;3.84;98.27;96966.28;7401171;19;19998;-58
2024/04/11 00:56:44;;;;;;;11.10;7.88;;;;;;;3.97;97.83;96969.69;7400895;19;20017;-58
2024/04/11 00:59:12;;;;;;;10.48;7.55;;;;;;;3.83;97.44;96968.03;7401067;19;19998;-57
2024/04/11 01:01:37;;;;;;;10.82;7.53;;;;;;;3.85;96.41;96970.63;7401002;19;20070;-56
2024/04/11 01:04:06;;;;;;;10.85;7.20;;;;;;;3.60;97.61;96966.38;7399720;19;20472;-57
2024/04/11 01:09:46;;;;;;;12.63;7.10;;;;;;;3.60;97.93;96971.56;7398713;19;20475;-54
2024/04/11 01:12:18;;;;;;;9.45;7.32;;;;;;;3.37;98.08;96976.81;7399065;19;20003;-61
2024/04/11 01:14:46;;;;;;;10.60;6.75;;;;;;;3.45;99.53;96971.59;7400279;19;20007;-62
2024/04/11 01:17:20;;;;;;;11.20;7.20;;;;;;;3.48;98.45;96966.41;7400485;19;19999;-53
2024/04/11 01:19:49;;;;;;;9.02;6.85;;;;;;;3.47;99.51;96972.47;7400167;19;20003;-57
2024/04/11 01:22:17;;;;;;;8.25;7.05;;;;;;;3.42;99.05;96967.28;7400042;19;20097;-59
2024/04/11 01:24:42;;;;;;;15.00;7.82;;;;;;;3.50;99.35;96964.69;7399753;19;20359;-60
2024/04/11 01:27:10;;;;;;;11.80;7.80;;;;;;;3.34;99.85;96959.56;7400161;19;20006;-62
2024/04/11 01:29:37;;;;;;;10.98;8.07;;;;;;;3.23;100.00;96954.44;7399666;19;20037;-59
2024/04/11 01:32:04;;;;;;;11.77;8.73;;;;;;;3.20;100.00;96950.97;7398300;19;20005;-58
2024/04/11 01:34:32;;;;;;;10.45;8.20;;;;;;;3.37;100.00;96953.53;7399493;19;20012;-60
2024/04/11 01:36:58;;;;;;;12.80;7.82;;;;;;;3.37;99.67;96953.53;7399427;19;20007;-60
2024/04/11 01:39:24;;;;;;;11.82;8.07;;;;;;;3.34;99.89;96954.38;7399355;19;20031;-59
2024/04/11 01:41:50;;;;;;;10.38;7.93;;;;;;;3.40;100.00;96950.91;7399793;19;20018;-55
2024/04/11 01:44:16;;;;;;;12.05;7.97;;;;;;;3.47;100.00;96950.06;7399604;19;20334;-57
2024/04/11 01:46:42;;;;;;;14.95;7.88;;;;;;;3.29;100.00;96958.72;7399413;19;20025;-56
2024/04/11 01:49:08;;;;;;;11.65;8.95;;;;;;;3.31;100.00;96950.97;7399082;19;20480;-56
2024/04/11 01:51:35;;;;;;;10.82;7.88;;;;;;;3.19;100.00;96949.25;7398491;19;20357;-56
2024/04/11 01:54:00;;;;;;;12.73;7.95;;;;;;;3.28;100.00;96960.44;7398849;19;20101;-58
2024/04/11 01:56:27;;;;;;;9.90;7.85;;;;;;;3.28;100.00;96960.44;7398832;19;20076;-56
2024/04/11 01:58:53;;;;;;;10.52;7.13;;;;;;;3.24;100.00;96963.03;7398737;19;20009;-57
2024/04/11 02:01:20;;;;;;;9.75;7.28;;;;;;;3.18;100.00;96958.72;7398895;19;19999;-59
2024/04/11 02:03:45;;;;;;;8.90;6.65;;;;;;;3.31;100.00;96963.88;7398261;19;20014;-57
2024/04/11 02:06:12;;;;;;;11.57;7.10;;;;;;;3.26;100.00;96961.31;7398579;19;20523;-58
2024/04/11 02:08:38;;;;;;;11.80;7.45;;;;;;;3.13;100.00;96968.22;7398348;19;20010;-55
2024/04/11 02:11:07;;;;;;;8.20;6.50;;;;;;;3.20;100.00;96969.06;7397997;19;19999;-57
2024/04/11 02:13:32;;;;;;;13.55;7.10;;;;;;;3.28;100.00;96965.59;7398231;19;20002;-58
2024/04/11 02:15:59;;;;;;;9.90;7.40;;;;;;;3.17;100.00;96969.94;7398229;19;19995;-53
2024/04/11 02:18:27;;;;;;;7.57;6.82;;;;;;;3.18;100.00;96969.06;7398175;19;20015;-56
2024/04/11 02:20:53;;;;;;;8.32;7.20;;;;;;;3.33;100.00;96960.44;7398118;19;20570;-59
2024/04/11 02:23:19;;;;;;;9.80;6.70;;;;;;;3.32;100.00;96971.66;7398247;19;20358;-59
2024/04/11 02:25:45;;;;;;;11.55;8.02;;;;;;;3.53;100.00;96975.03;7398227;19;20005;-58
2024/04/11 02:28:10;;;;;;;11.98;7.53;;;;;;;3.54;100.00;96975.03;7398050;19;20043;-54
2024/04/11 02:30:36;;;;;;;9.82;6.85;;;;;;;3.32;100.00;96975.94;7397642;19;20354;-58
2024/04/11 02:33:02;;;;;;;9.40;6.85;;;;;;;3.35;100.00;96973.34;7395668;19;20005;-55
2024/04/11 02:35:27;;;;;;;9.18;7.13;;;;;;;3.29;100.00;96982.00;7397505;19;19995;-57
2024/04/11 02:37:56;;;;;;;10.25;6.38;;;;;;;3.19;100.00;96981.13;7397825;19;20003;-56
2024/04/11 02:40:21;;;;;;;9.50;6.68;;;;;;;3.15;100.00;96988.03;7395835;19;20002;-59
2024/04/11 02:42:47;;;;;;;11.55;6.50;;;;;;;3.15;100.00;96984.59;7397257;19;20437;-58
2024/04/11 02:45:15;;;;;;;9.00;6.75;;;;;;;3.16;100.00;96991.47;7397155;19;20007;-59
2024/04/11 02:47:44;;;;;;;10.45;6.60;;;;;;;3.18;100.00;96989.75;7397567;19;20014;-56
2024/04/11 02:50:15;;;;;;;8.40;6.25;;;;;;;3.15;100.00;96989.75;7397082;19;19999;-54
2024/04/11 02:52:43;;;;;;;9.95;6.68;;;;;;;3.11;100.00;96996.69;7395650;19;20070;-60
2024/04/11 02:55:10;;;;;;;10.38;6.28;;;;;;;3.18;100.00;96986.31;7396902;19;20016;-59
2024/04/11 02:57:37;;;;;;;8.65;5.88;;;;;;;3.20;100.00;96990.63;7396751;19;20035;-56
2024/04/11 03:00:04;;;;;;;10.80;6.30;;;;;;;3.33;100.00;96998.34;7395462;19;20070;-60
2024/04/11 03:02:33;;;;;;;9.38;6.20;;;;;;;3.35;100.00;97002.69;7396558;19;19998;-57
2024/04/11 03:05:00;;;;;;;10.35;6.60;;;;;;;3.33;100.00;97004.41;7393460;19;20036;-60
2024/04/11 03:07:27;;;;;;;7.93;6.45;;;;;;;3.31;100.00;97003.53;7394764;19;20011;-55
2024/04/11 03:09:56;;;;;;;7.30;6.20;;;;;;;3.32;100.00;97006.97;7394682;19;20001;-62
2024/04/11 03:12:21;;;;;;;7.60;5.95;;;;;;;3.36;100.00;97006.97;7392792;19;20415;-60
2024/04/11 03:14:47;;;;;;;10.30;6.65;;;;;;;3.28;100.00;97006.97;7394530;19;19998;-57
2024/04/11 03:17:13;;;;;;;6.20;5.35;;;;;;;3.29;100.00;97016.44;7394409;19;20335;-58
2024/04/11 03:19:40;;;;;;;11.15;5.30;;;;;;;3.19;100.00;97001.81;7394350;19;20011;-61
2024/04/11 03:22:08;;;;;;;8.02;5.45;;;;;;;3.37;100.00;97007.84;7394314;19;20005;-54
2024/04/11 03:24:34;;;;;;;10.38;5.90;;;;;;;3.34;100.00;97010.44;7394152;19;20006;-58
2024/04/11 03:27:02;;;;;;;7.35;5.88;;;;;;;3.59;100.00;97015.56;7394228;19;19999;-60
2024/04/11 03:29:31;;;;;;;8.98;5.65;;;;;;;3.49;100.00;97019.91;7394237;19;20006;-62
2024/04/11 03:31:57;;;;;;;7.72;5.30;;;;;;;3.56;100.00;97023.31;7392500;19;20002;-58
2024/04/11 03:34:23;;;;;;;6.75;5.55;;;;;;;3.57;100.00;97025.03;7393927;19;19995;-58
2024/04/11 03:36:49;;;;;;;8.48;5.38;;;;;;;3.58;100.00;97024.19;7394317;19;20007;-59
2024/04/11 03:39:20;;;;;;;13.82;7.05;;;;;;;3.84;100.00;97029.28;7393780;19;19999;-58
2024/04/11 03:41:49;;;;;;;13.80;6.85;;;;;;;3.61;100.00;97034.53;7393955;19;20015;-61
2024/04/11 03:44:15;;;;;;;9.25;5.57;;;;;;;3.48;100.00;97041.44;7394066;19;19999;-60
2024/04/11 03:46:41;;;;;;;7.88;5.47;;;;;;;3.55;100.00;97048.31;7393712;19;20361;-58
2024/04/11 03:49:08;;;;;;;10.23;5.82;;;;;;;3.43;100.00;97038.00;7393552;19;20066;-54
2024/04/11 03:51:37;;;;;;;8.93;5.53;;;;;;;3.59;100.00;97044.88;7392997;19;20005;-55
2024/04/11 03:54:03;;;;;;;10.93;6.88;;;;;;;3.53;100.00;97052.66;7393440;19;20014;-57
2024/04/11 03:56:29;;;;;;;7.72;5.40;;;;;;;3.57;100.00;97049.19;7393202;19;19999;-62
2024/04/11 03:58:56;;;;;;;10.10;6.03;;;;;;;3.56;100.00;97046.59;7393582;19;20031;-58
2024/04/11 04:01:22;;;;;;;6.55;5.10;;;;;;;3.27;100.00;97059.56;7393157;19;20002;-58
2024/04/11 04:03:51;;;;;;;7.32;5.18;;;;;;;3.40;100.00;97056.97;7392658;19;20023;-56
2024/04/11 04:06:18;;;;;;;8.27;6.25;;;;;;;3.61;100.00;97069.00;7394778;19;20030;-60
2024/04/11 04:08:45;;;;;;;8.55;5.97;;;;;;;3.77;100.00;97069.84;7394711;19;20010;-61
2024/04/11 04:11:12;;;;;;;8.52;7.00;;;;;;;3.81;100.00;97081.06;7397788;19;20007;-56
2024/04/11 04:13:38;;;;;;;9.65;7.00;;;;;;;3.79;100.00;97081.06;7402589;19;20073;-56
2024/04/11 04:16:12;;;;;;;7.18;5.97;;;;;;;3.74;100.00;97080.22;7402163;19;20002;-61
2024/04/11 04:18:38;;;;;;;10.13;5.68;;;;;;;3.78;100.00;97088.81;7402269;19;19998;-61
2024/04/11 04:21:04;;;;;;;7.78;5.78;;;;;;;4.46;99.30;97092.06;7402223;19;20027;-58
2024/04/11 04:23:31;;;;;;;7.60;5.63;;;;;;;5.17;95.60;97093.34;7401890;19;20002;-60
2024/04/11 04:26:08;;;;;;;9.27;6.18;;;;;;;6.01;91.51;97095.19;7401799;19;20076;-58
2024/04/11 04:28:39;;;;;;;11.65;5.68;;;;;;;6.90;85.55;97101.94;7401858;19;20002;-59
2024/04/11 04:31:21;;;;;;;10.25;5.78;;;;;;;8.20;76.78;97111.06;7401358;19;20003;-54
2024/04/11 04:33:52;;;;;;;6.65;5.32;;;;;;;9.33;71.34;97114.75;7402048;19;20010;-61
2024/04/11 04:36:33;;;;;;;6.78;5.05;;;;;;;8.88;70.66;97118.38;7401428;19;20023;-56
2024/04/11 04:38:59;;;;;;;5.90;4.93;;;;;;;10.08;66.60;97120.75;7401977;19;20031;-61
2024/04/11 04:41:29;;;;;;;5.05;3.85;;;;;;;9.15;66.75;97121.28;7401273;19;20023;-54
2024/04/11 04:43:56;;;;;;;9.43;4.25;;;;;;;9.23;67.69;97118.50;7401726;19;20400;-55
2024/04/11 04:46:23;;;;;;;8.32;4.28;;;;;;;10.08;66.64;97128.59;7401075;19;20022;-54
2024/04/11 04:48:50;;;;;;;8.75;4.93;;;;;;;10.56;64.24;97130.81;7401528;19;20009;-56
2024/04/11 04:51:18;;;;;;;7.80;4.78;;;;;;;11.27;61.58;97140.06;7400469;19;20058;-59
2024/04/11 04:53:44;;;;;;;8.18;4.68;;;;;;;12.38;57.69;97137.34;7400918;19;19999;-61
2024/04/11 04:56:10;;;;;;;5.80;4.70;;;;;;;12.00;58.02;97135.97;7401268;19;20345;-58
2024/04/11 04:58:39;;;;;;;9.40;5.00;;;;;;;12.30;58.76;97149.84;7400771;19;20002;-62
2024/04/11 05:01:07;;;;;;;8.52;4.72;;;;;;;12.79;56.84;97149.00;7400708;19;20465;-57
2024/04/11 05:03:38;;;;;;;9.18;4.57;;;;;;;12.08;60.17;97146.22;7400398;19;20465;-61
2024/04/11 05:06:07;;;;;;;5.95;4.55;;;;;;;12.55;58.42;97144.56;7400949;19;20007;-59
2024/04/11 05:08:34;;;;;;;5.88;4.78;;;;;;;12.70;58.09;97143.16;7400552;19;20069;-56
2024/04/11 05:11:00;;;;;;;9.70;5.45;;;;;;;12.81;58.71;97149.78;7400567;19;20012;-53
2024/04/11 05:13:29;;;;;;;6.18;5.35;;;;;;;13.55;56.28;97150.50;7400270;19;19998;-55
2024/04/11 05:16:06;;;;;;;8.88;4.88;;;;;;;15.43;51.55;97166.94;7400573;19;20353;-55
2024/04/11 05:18:38;;;;;;;6.32;5.07;;;;;;;17.01;48.24;97160.78;7400616;19;20354;-57
2024/04/11 05:21:08;;;;;;;7.60;4.93;;;;;;;18.76;45.08;97174.75;7399518;19;20002;-60
2024/04/11 05:23:36;;;;;;;5.47;4.50;;;;;;;19.58;43.63;97183.84;7400426;19;20002;-60
2024/04/11 05:26:07;;;;;;;6.88;4.50;;;;;;;20.80;40.56;97178.50;7400288;19;20347;-58
2024/04/11 05:28:36;;;;;;;9.40;4.55;;;;;;;21.64;39.11;97185.88;7400317;19;20038;-56
2024/04/11 05:31:05;;;;;;;5.80;4.13;;;;;;;18.03;45.25;97171.09;7399543;19;19998;-57
2024/04/11 05:33:32;;;;;;;6.88;5.00;;;;;;;20.63;39.09;97182.31;7399642;19;20002;-55
2024/04/11 05:35:58;;;;;;;13.52;5.97;;;;;;;23.27;35.14;97195.06;7399933;19;20338;-57
2024/04/11 05:38:26;;;;;;;23.52;7.13;;;;;;;22.96;36.22;97196.53;7399528;19;20465;-61
2024/04/11 05:40:52;;;;;;;29.33;6.90;;;;;;;22.65;35.90;97190.91;7399360;19;19995;-56
2024/04/11 05:43:21;;;;;;;26.23;6.43;;;;;;;22.59;34.30;97194.06;7399236;19;19998;-59
2024/04/11 05:45:47;;;;;;;14.77;6.05;;;;;;;23.07;33.67;97208.16;7399284;19;20011;-56
2024/04/11 05:48:13;;;;;;;27.02;5.68;;;;;;;24.65;30.87;97204.34;7399201;19;20032;-58
2024/04/11 05:50:39;;;;;;;14.65;5.57;;;;;;;24.10;33.43;97202.66;7399056;19;19999;-56
2024/04/11 05:53:06;;;;;;;14.05;5.60;;;;;;;22.66;35.60;97197.09;7397234;19;20066;-59
2024/04/11 05:55:32;;;;;;;14.93;5.45;;;;;;;23.72;33.97;97208.34;7398832;19;20031;-56
2024/04/11 05:57:58;;;;;;;14.63;5.50;;;;;;;26.72;29.57;97213.88;7398753;19;20077;-60
2024/04/11 06:00:29;;;;;;;5.35;3.60;;;;;;;26.70;24.49;97215.88;7398642;19;20011;-57
2024/04/11 06:03:08;;;;;;;6.00;3.53;;;;;;;24.86;26.24;97216.84;7398877;19;20007;-59
2024/04/11 06:05:34;;;;;;;6.05;3.17;;;;;;;20.10;32.19;97209.75;7396955;19;20346;-60
2024/04/11 06:08:00;;;;;;;3.78;2.95;;;;;;;20.91;32.72;97213.16;7398548;19;20010;-55
2024/04/11 06:10:28;;;;;;;5.70;3.00;;;;;;;18.69;33.52;97211.34;7398319;19;19999;-60
2024/04/11 06:12:54;;;;;;;5.00;3.30;;;;;;;18.19;36.36;97198.38;7396483;19;19995;-61
2024/04/11 06:15:20;;;;;;;7.07;3.20;;;;;;;18.42;36.72;97195.28;7398353;19;20067;-58
2024/04/11 06:17:45;;;;;;;6.80;3.40;;;;;;;18.28;34.82;97204.94;7398275;19;20006;-53
2024/04/11 06:20:21;;;;;;;5.60;2.72;;;;;;;20.68;30.59;97215.56;7398102;19;19995;-57
2024/04/11 06:22:55;;;;;;;3.78;2.70;;;;;;;19.23;33.35;97216.97;7398142;19;20002;-60
2024/04/11 06:25:25;;;;;;;3.33;2.95;;;;;;;19.80;33.10;97219.59;7398406;19;20007;-55
2024/04/11 06:27:52;;;;;;;4.10;2.97;;;;;;;20.41;31.17;97218.31;7398001;19;19995;-56
2024/04/11 06:30:19;;;;;;;4.65;2.80;;;;;;;21.37;30.58;97220.69;7397789;19;20500;-53
2024/04/11 06:32:46;;;;;;;4.63;2.60;;;;;;;20.53;28.52;97222.78;7395194;19;19997;-58
2024/04/11 06:35:13;;;;;;;4.80;2.78;;;;;;;19.50;29.17;97234.72;7396928;19;20024;-57
2024/04/11 06:37:44;;;;;;;5.28;2.28;;;;;;;19.91;30.28;97230.38;7397598;19;20342;-60
2024/04/11 06:40:13;;;;;;;3.83;2.40;;;;;;;19.99;29.97;97243.16;7397542;19;20003;-57
2024/04/11 06:42:49;;;;;;;5.13;2.30;;;;;;;20.10;28.03;97237.16;7397512;19;20006;-58
2024/04/11 06:45:16;;;;;;;5.60;2.50;;;;;;;20.52;28.70;97238.84;7397326;19;20038;-59
2024/04/11 06:47:45;;;;;;;3.40;2.70;;;;;;;19.26;27.58;97248.59;7397599;19;20065;-57
2024/04/11 06:50:11;;;;;;;6.30;2.70;;;;;;;20.16;27.63;97243.84;7397129;19;20011;-59
2024/04/11 06:52:37;;;;;;;6.00;3.00;;;;;;;19.76;28.39;97250.78;7395682;19;20002;-55
2024/04/11 06:55:08;;;;;;;3.33;2.42;;;;;;;20.62;28.97;97245.22;7395395;19;20070;-57
2024/04/11 06:57:40;;;;;;;3.30;2.50;;;;;;;19.77;27.29;97251.63;7397295;19;20069;-57
2024/04/11 07:00:14;;;;;;;6.22;2.88;;;;;;;20.52;26.34;97252.97;7396737;19;20015;-56
2024/04/11 07:02:46;;;;;;;3.15;2.58;;;;;;;19.51;27.52;97252.34;7397220;19;20334;-55
2024/04/11 07:05:13;;;;;;;3.78;2.78;;;;;;;20.29;27.65;97255.38;7395456;19;20078;-55
2024/04/11 07:07:45;;;;;;;3.08;2.65;;;;;;;19.43;27.84;97255.50;7396564;19;19999;-56
2024/04/11 07:10:24;;;;;;;3.67;2.78;;;;;;;20.51;26.63;97261.06;7396481;19;19999;-54
2024/04/11 07:12:53;;;;;;;5.60;2.47;;;;;;;19.40;26.83;97268.97;7394950;19;20002;-58
2024/04/11 07:15:28;;;;;;;5.55;2.95;;;;;;;20.50;26.76;97264.69;7396297;19;20022;-57
2024/04/11 07:17:57;;;;;;;3.85;2.63;;;;;;;19.88;27.26;97270.38;7396381;19;19999;-58
2024/04/11 07:20:30;;;;;;;4.88;2.85;;;;;;;20.23;26.33;97269.06;7396119;19;19998;-59
2024/04/11 07:22:58;;;;;;;5.28;2.88;;;;;;;21.20;25.87;97270.59;7396269;19;20449;-60
2024/04/11 07:25:30;;;;;;;5.35;2.83;;;;;;;20.27;26.31;97275.88;7395967;19;20019;-59
2024/04/11 07:27:56;;;;;;;4.78;2.33;;;;;;;19.78;26.51;97278.06;7396544;19;20002;-58
2024/04/11 07:30:24;;;;;;;7.00;2.92;;;;;;;19.92;26.55;97282.50;7395770;19;19998;-54
2024/04/11 07:32:52;;;;;;;5.32;2.88;;;;;;;19.78;27.27;97290.50;7394378;19;20003;-57
2024/04/11 07:35:18;;;;;;;4.88;2.80;;;;;;;20.55;25.49;97289.97;7395595;19;20477;-61
2024/04/11 07:37:44;;;;;;;3.08;2.50;;;;;;;20.64;25.90;97284.97;7395483;19;20031;-57
2024/04/11 07:40:27;;;;;;;9.93;2.85;;;;;;;19.48;27.18;97286.19;7395907;19;19994;-57
2024/04/11 07:42:57;;;;;;;4.53;2.53;;;;;;;20.27;27.94;97288.31;7395478;19;20066;-61
2024/04/11 07:45:30;;;;;;;5.20;2.67;;;;;;;20.68;26.76;97290.00;7394894;19;19998;-59
2024/04/11 07:47:58;;;;;;;6.70;2.63;;;;;;;21.48;26.18;97289.06;7395450;19;20063;-58
2024/04/11 07:50:26;;;;;;;6.20;2.72;;;;;;;20.47;26.64;97284.34;7395560;19;20078;-56
2024/04/11 07:52:52;;;;;;;4.97;2.97;;;;;;;21.61;25.17;97297.06;7394179;19;20009;-54
2024/04/11 07:55:20;;;;;;;3.28;2.97;;;;;;;20.49;25.50;97289.53;7394971;19;20066;-57
2024/04/11 07:57:46;;;;;;;6.65;2.67;;;;;;;21.11;25.35;97287.19;7394939;19;19999;-56
2024/04/11 08:00:20;;;;;;;4.63;2.53;;;;;;;21.79;25.07;97300.25;7394920;19;20003;-58
2024/04/11 08:02:48;;;;;;;4.50;2.50;;;;;;;20.97;26.23;97296.97;7395384;19;20002;-51
2024/04/11 08:05:18;;;;;;;3.67;2.50;;;;;;;21.19;23.66;97299.00;7393647;19;20042;-56
2024/04/11 08:07:44;;;;;;;6.80;3.03;;;;;;;21.42;24.24;97296.53;7394737;19;20480;-59
2024/04/11 08:10:10;;;;;;;4.47;2.65;;;;;;;20.97;25.27;97304.94;7394732;19;20003;-58
2024/04/11 08:12:35;;;;;;;4.18;2.88;;;;;;;21.61;23.79;97305.03;7393340;19;19995;-54
2024/04/11 08:15:02;;;;;;;3.78;2.70;;;;;;;22.82;22.89;97298.09;7395083;19;19998;-57
2024/04/11 08:17:29;;;;;;;3.50;2.80;;;;;;;21.79;23.52;97301.06;7394704;19;19999;-57
2024/04/11 08:19:55;;;;;;;4.40;2.58;;;;;;;22.29;24.10;97300.16;7394855;19;20002;-56
2024/04/11 08:22:22;;;;;;;4.97;2.58;;;;;;;21.40;24.14;97301.13;7394752;19;20361;-60
2024/04/11 08:24:51;;;;;;;6.70;2.90;;;;;;;23.70;25.99;97303.78;7394732;19;19999;-59
2024/04/11 08:27:17;;;;;;;4.55;2.90;;;;;;;22.26;27.07;97300.38;7394230;19;20016;-57
2024/04/11 08:29:42;;;;;;;5.03;3.00;;;;;;;21.42;24.66;97301.88;7394145;19;20003;-58
2024/04/11 08:32:09;;;;;;;3.50;2.58;;;;;;;21.73;23.73;97296.16;7393061;19;19999;-58
2024/04/11 08:34:35;;;;;;;5.45;2.78;;;;;;;22.75;24.67;97300.34;7394012;19;19995;-54
2024/04/11 08:37:02;;;;;;;4.50;2.28;;;;;;;21.96;23.84;97307.00;7394080;19;20054;-50
2024/04/11 08:39:28;;;;;;;3.97;2.70;;;;;;;22.04;23.83;97299.31;7393902;19;19999;-58
2024/04/11 08:41:53;;;;;;;5.35;2.75;;;;;;;21.23;24.26;97299.66;7393976;19;20065;-61
2024/04/11 08:44:19;;;;;;;3.78;2.88;;;;;;;21.78;25.75;97301.19;7394256;19;20019;-57
2024/04/11 08:46:45;;;;;;;5.03;2.72;;;;;;;22.44;23.99;97306.16;7393738;19;19999;-57
2024/04/11 08:49:11;;;;;;;5.47;2.92;;;;;;;22.68;25.24;97294.66;7394123;19;19994;-61
2024/04/11 08:51:39;;;;;;;8.50;2.22;;;;;;;22.56;24.81;97291.06;7393435;19;20440;-52
2024/04/11 08:54:07;;;;;;;4.70;2.70;;;;;;;21.90;24.47;97300.31;7393726;19;20002;-54
2024/04/11 08:56:33;;;;;;;7.45;3.17;;;;;;;21.43;23.81;97294.75;7394947;19;20504;-55
2024/04/11 08:58:59;;;;;;;5.03;2.53;;;;;;;21.79;23.33;97306.41;7400780;19;20005;-56
2024/04/11 09:01:24;;;;;;;7.78;2.65;;;;;;;22.43;22.45;97303.63;7401075;19;20023;-54
2024/04/11 09:03:52;;;;;;;4.00;2.60;;;;;;;21.33;24.78;97305.16;7400335;19;20382;-53
2024/04/11 09:06:30;;;;;;;5.30;2.45;;;;;;;22.44;26.85;97302.66;7401010;19;20003;-58
2024/04/11 09:09:01;;;;;;;6.22;2.53;;;;;;;22.14;23.29;97307.47;7400408;19;20468;-58
2024/04/11 09:11:27;;;;;;;7.32;2.75;;;;;;;21.93;24.36;97299.22;7399874;19;20005;-55
2024/04/11 09:13:53;;;;;;;6.00;2.90;;;;;;;22.24;25.57;97301.47;7400199;19;20002;-58
2024/04/11 09:16:27;;;;;;;9.63;3.10;;;;;;;22.91;25.22;97309.88;7400224;19;19995;-59
2024/04/11 09:19:09;;;;;;;8.27;2.90;;;;;;;22.25;24.00;97306.69;7400596;19;20027;-60
2024/04/11 09:21:44;;;;;;;4.18;2.20;;;;;;;21.52;24.84;97309.22;7400498;19;20378;-57
2024/04/11 09:24:13;;;;;;;4.47;3.00;;;;;;;22.65;24.82;97302.03;7400011;19;20409;-52
2024/04/11 09:26:40;;;;;;;3.15;2.45;;;;;;;21.78;25.24;97303.84;7400069;19;20074;-56
2024/04/11 09:29:06;;;;;;;7.07;3.08;;;;;;;21.57;26.23;97305.25;7399899;19;19995;-55
2024/04/11 09:31:32;;;;;;;3.22;2.45;;;;;;;22.18;24.80;97308.06;7399546;19;20003;-56
2024/04/11 09:33:58;;;;;;;4.88;3.00;;;;;;;22.60;26.05;97307.69;7399977;19;20090;-59
2024/04/11 09:36:34;;;;;;;5.95;3.25;;;;;;;22.58;25.16;97314.97;7399622;19;19998;-56
2024/04/11 09:39:12;;;;;;;7.80;2.92;;;;;;;22.99;24.14;97307.44;7399535;19;20531;-61
2024/04/11 09:41:40;;;;;;;9.05;3.22;;;;;;;22.20;24.34;97314.16;7399514;19;20417;-57
2024/04/11 09:44:07;;;;;;;10.27;2.80;;;;;;;22.27;25.06;97318.06;7399204;19;20362;-56
2024/04/11 09:46:41;;;;;;;5.43;3.25;;;;;;;22.32;26.14;97309.72;7399263;19;19998;-58
2024/04/11 09:49:10;;;;;;;7.45;3.78;;;;;;;22.44;25.89;97314.16;7399515;19;20345;-56
2024/04/11 09:51:38;;;;;;;4.68;3.22;;;;;;;23.14;24.38;97318.75;7398432;19;19998;-56
2024/04/11 09:54:12;;;;;;;4.05;3.65;;;;;;;22.79;25.13;97317.00;7398947;19;20006;-58
2024/04/11 09:56:44;;;;;;;6.65;3.10;;;;;;;22.30;25.11;97323.16;7399124;19;19998;-58
2024/04/11 09:59:12;;;;;;;5.97;3.25;;;;;;;22.59;25.15;97322.88;7399356;19;20337;-52
2024/04/11 10:01:38;;;;;;;5.85;3.30;;;;;;;22.52;25.30;97316.25;7399142;19;20009;-56
2024/04/11 10:04:24;;;;;;;4.82;3.42;;;;;;;22.21;24.68;97308.72;7398013;19;20354;-52
2024/04/11 10:06:53;;;;;;;11.05;3.75;;;;;;;22.07;25.11;97309.72;7398582;19;20058;-53
2024/04/11 10:09:29;;;;;;;6.93;3.38;;;;;;;22.52;25.73;97328.72;7395734;19;20476;-55
2024/04/11 10:12:01;;;;;;;3.35;3.03;;;;;;;22.72;24.19;97311.25;7397648;19;20005;-57
2024/04/11 10:14:31;;;;;;;8.43;3.03;;;;;;;22.59;24.72;97306.88;7398374;19;20039;-53
2024/04/11 10:17:01;;;;;;;;;;;;;;;22.63;24.70;97312.81;7398881;19;20468;-56
2024/04/11 10:19:31;;;;;;;5.45;3.10;;;;;;;22.82;25.56;97306.91;7398270;19;20269;-53
2024/04/11 10:22:06;;;;;;;9.50;3.67;;;;;;;22.71;25.50;97304.22;7397990;19;20549;-60
2024/04/11 10:24:37;;;;;;;5.07;3.38;;;;;;;22.19;26.21;97299.97;7398426;19;20373;-59
2024/04/11 10:27:10;;;;;;;5.57;3.70;;;;;;;22.87;26.16;97305.75;7398326;19;20073;-55
2024/04/11 10:29:49;;;;;;;6.15;3.05;;;;;;;23.28;25.30;97308.81;7397753;19;20032;-57
2024/04/11 10:32:22;;;;;;;11.80;3.50;;;;;;;23.34;25.70;97303.00;7396894;19;20006;-53
2024/04/11 10:34:56;;;;;;;7.65;3.15;;;;;;;22.44;25.38;97298.16;7398186;19;20421;-50
2024/04/11 10:37:33;;;;;;;7.65;3.80;;;;;;;22.93;25.49;97292.78;7397645;19;20460;-56
2024/04/11 10:40:00;;;;;;;7.97;3.47;;;;;;;23.74;26.77;97304.38;7397516;19;20027;-58
2024/04/11 10:42:36;;;;;;;10.05;2.90;;;;;;;23.21;24.65;97306.63;7397487;19;20009;-55
2024/04/11 10:45:17;;;;;;;8.77;3.63;;;;;;;22.46;25.29;97298.06;7397355;19;19999;-57
2024/04/11 10:47:44;;;;;;;;;;;;;;;22.88;26.09;97294.97;7397959;19;19999;-56
2024/04/11 10:50:10;;;;;;;6.18;3.67;;;;;;;22.95;25.84;97287.31;7397239;19;19919;-56
2024/04/11 10:52:40;;;;;;;7.18;3.50;;;;;;;23.36;24.71;97298.41;7396230;19;20031;-54
2024/04/11 10:55:12;;;;;;;8.68;3.67;;;;;;;23.19;24.83;97287.25;7396963;19;19995;-57
2024/04/11 10:57:49;;;;;;;4.85;3.08;;;;;;;23.72;24.88;97296.47;7396975;19;19995;-52
2024/04/11 11:00:22;;;;;;;12.68;3.75;;;;;;;24.68;24.46;97292.31;7397407;19;20009;-61
2024/04/11 11:02:50;;;;;;;7.25;3.80;;;;;;;23.43;26.97;97282.78;7396870;19;19995;-56
2024/04/11 11:05:18;;;;;;;4.68;3.25;;;;;;;24.18;25.40;97290.22;7395609;19;20018;-55
2024/04/11 11:07:43;;;;;;;6.40;3.25;;;;;;;23.54;24.64;97290.78;7396975;19;20093;-58
2024/04/11 11:10:13;;;;;;;7.60;3.97;;;;;;;23.51;27.08;97288.34;7396812;19;20460;-56
2024/04/11 11:12:39;;;;;;;9.98;3.88;;;;;;;23.71;24.56;97293.94;7395356;19;20062;-55
2024/04/11 11:15:06;;;;;;;6.00;3.75;;;;;;;23.77;23.72;97295.25;7396683;19;20016;-54
2024/04/11 11:17:35;;;;;;;10.40;3.58;;;;;;;23.32;23.36;97297.78;7396619;19;20010;-56
2024/04/11 11:20:09;;;;;;;3.35;3.00;;;;;;;23.77;23.21;97281.91;7395279;19;19999;-56
2024/04/11 11:22:40;;;;;;;4.60;3.28;;;;;;;24.25;24.49;97288.75;7396083;19;19999;-53
2024/04/11 11:25:08;;;;;;;5.80;3.58;;;;;;;24.02;23.50;97287.94;7396046;19;20013;-54
2024/04/11 11:27:35;;;;;;;3.95;3.55;;;;;;;24.03;24.07;97286.97;7396335;19;20375;-55
2024/04/11 11:30:05;;;;;;;7.47;3.28;;;;;;;23.55;22.82;97294.31;7395964;19;19998;-49
2024/04/11 11:32:35;;;;;;;5.95;3.50;;;;;;;23.17;23.96;97280.31;7395260;19;20013;-58
2024/04/11 11:35:05;;;;;;;5.60;3.70;;;;;;;23.83;23.26;97276.91;7395645;19;19994;-57
2024/04/11 11:37:32;;;;;;;6.32;3.70;;;;;;;23.53;24.30;97267.72;7395651;19;20009;-55
2024/04/11 11:40:32;;;;;;;5.57;3.53;;;;;;;23.68;24.01;97283.50;7395535;19;19995;-57
2024/04/11 11:42:43;;;;;;;8.93;3.65;;;;;;;23.48;23.76;97278.78;7395558;19;20003;-57